Skip to Main Content

If you see just a black screen when trying to view Live Traffic cameras, please click inside the window to get video to play. An update to certain browsers is not allowing the video to auto-play when the window opens. 

SEARCH:
Location Air RH Dwp Precip Type Wind Speed Wind Gust Direction Pavement Temperature Date/Time
Hatem Bridge US 40 E/B 81 48 60 None 4 mph 6 mph W 97 - 97 6/20/2018 2:31:00 PM
I-270 at I-370 76 73 66 None Calm Calm SE 89 - 90 6/20/2018 2:30:00 PM
I-270 at MD-109 79 73 70 None Calm 5 mph N 103 - 104 6/20/2018 2:30:00 PM
I-495 at American Legion Bridge 80 71 70 None 4 mph 10 mph NW 100 - 100 6/20/2018 2:30:00 PM
I-68 at Savage Mt 76 87 72 None Calm 9 mph E 101 - 103 6/20/2018 2:30:00 PM
I-68 at Sideling Hill 66 100 66 None Calm 4 mph N 73 - 74 6/20/2018 2:30:00 PM
I-68 at US 219 76 81 70 None 8 mph 18 mph W 105 - 106 6/20/2018 2:30:00 PM
I-68 at WV Line 79 68 68 None 6 mph 17 mph W 102 - 99 6/20/2018 2:30:00 PM
I-695 at I-83 74 85 69 Rain Calm 9 mph N 79 - 80 6/20/2018 2:30:00 PM
I-695 on FSK Bridge 76 64 63 Rain 17 mph 19 mph E 82 - 82 6/20/2018 2:31:00 PM
I-70 at Fred-Wash Co. 68 94 66 None Calm 5 mph E 79 - 81 6/20/2018 2:30:00 PM
I-70 at I-695 71 94 69 Rain Calm 7 mph W 75 - 79 6/20/2018 2:30:00 PM
I-70 at I-81 67 100 67 Rain Calm 5 mph NE - 6/20/2018 2:30:00 PM
I-70 at MD-27 68 100 68 None Calm 7 mph NE 76 - 77 6/20/2018 2:30:00 PM
I-70 at MD-32 68 92 66 Rain Calm 4 mph N 74 - 76 6/20/2018 2:30:00 PM
I-83 at MD-137 74 79 67 None Calm 4 mph SW 88 - 88 6/20/2018 2:30:00 PM
I-95 at I-695 NE 76 65 63 Rain 9 mph 11 mph W 84 - 86 6/20/2018 2:31:00 PM
I-95 at Patuxent River 81 64 68 None Calm 9 mph S 94 - 96 6/20/2018 2:30:00 PM
I-95 at Tydings Bridge 82 49 61 None Calm 6 mph S 98 - 99 6/20/2018 2:30:00 PM
I-95/495 at I-295 86 52 66 None Calm 5 mph W 113 - 94 6/20/2018 2:30:00 PM
I-97 at MD-100 79 65 67 Rain 7 mph 15 mph NW 89 - 92 6/20/2018 2:30:00 PM
I-97 at MD-32 81 60 66 None Calm 4 mph NW 101 - 96 6/20/2018 2:30:00 PM
IS 70 W of I-270 - - - No Data Available - - No Data Available 92 - 92 6/20/2018 2:30:00 PM
MD 136 @ MD 646 77 60 63 No Data Available Calm 9 mph SW 104 - 104 6/20/2018 2:25:00 PM
MD 20 at MD 21 81 58 65 None 4 mph 9 mph W 120 - 120 6/20/2018 2:30:00 PM
MD 23 at Meadowtree Road 74 69 64 No Data Available Calm Calm W 95 - 95 6/20/2018 2:30:00 PM
MD 231 at Patuxent River 84 61 69 None Calm 5 mph S 121 - 122 6/20/2018 2:30:00 PM
MD 24 at Jarrettsville Road 77 63 64 No Data Available 4 mph 9 mph W 100 - 100 6/20/2018 2:30:00 PM
MD 260 at Cox Rd 85 62 70 None Calm 5 mph SE 126 - 126 6/20/2018 2:30:00 PM
MD-135 at Salt Dome 78 81 71 None 4 mph 15 mph SW 111 - 111 6/20/2018 2:30:00 PM
MD-140 at MD-97 72 81 66 Rain 4 mph 8 mph SW 87 - 87 6/20/2018 2:30:00 PM
MD-200 EB at Bonifant Rd - - - No Data Available - - No Data Available -
MD-200 WB at Muncaster Mill Rd 80 61 65 None Calm 8 mph SE 95 - 99 6/20/2018 2:31:00 PM
MD-213 at Sassafras River 84 62 70 None 7 mph 11 mph W 127 - 127 6/20/2018 2:30:00 PM
MD-24 at Rock St Park 76 85 71 None Calm Calm N 90 - 90 6/20/2018 2:30:00 PM
MD-30 at PA Line 71 85 67 None Calm 5 mph W 84 - 84 6/20/2018 2:30:00 PM
MD-33 at Knapps Narrows Drawbridge 85 45 62 None 4 mph 8 mph NW 133 - 133 6/20/2018 2:30:00 PM
MD-344 at MD-224 83 70 72 None Calm 4 mph N 113 - 113 6/20/2018 2:30:00 PM
MD-4 at Patuxent River 88 67 76 None 8 mph 8 mph E 117 - 121 6/20/2018 2:30:00 PM
MD-404 at Choptank River 85 59 69 None Calm 6 mph W 112 - 113 6/20/2018 2:30:00 PM
MD-43 at MD-150 - - - No Data Available - - No Data Available -
MD-51 at Oldtown Salt Dome 75 81 69 None 6 mph 12 mph E 112 - 112 6/20/2018 2:30:00 PM
MD-64 at MD-418 71 75 63 None Calm 4 mph SE 92 - 92 6/20/2018 2:30:00 PM
US 301 at MD 305 83 62 69 None 8 mph 12 mph NW 114 - 122 6/20/2018 2:30:00 PM
US-1 at Baltimore / Harford Co. Line 76 73 67 None Calm Calm N 90 - 91 6/20/2018 2:30:00 PM
US-1 at Conowingo Dam 81 64 67 None Calm Calm N 99 - 99 6/20/2018 2:30:00 PM
US-13 at US-113 82 73 73 None 8 mph 13 mph SE 113 - 114 6/20/2018 2:30:00 PM
US-13 at US-50 84 68 72 None 4 mph 10 mph SW 108 - 108 6/20/2018 2:30:00 PM
US-15 at MD-140 72 76 64 None 5 mph 9 mph S 83 - 84 6/20/2018 2:30:00 PM
US-301 at MD-5 85 57 68 None Calm 5 mph NW 115 - 117 6/20/2018 2:30:00 PM
US-301 at Potomac 88 57 71 None Calm Calm SW 120 - 120 6/20/2018 2:31:00 PM
US-340 at MD-180 73 75 65 None Calm 6 mph E 101 - 105 6/20/2018 2:30:00 PM
US-50 at Choptank 84 74 75 None 6 mph 10 mph W 115 - 117 6/20/2018 2:30:00 PM
US-50 at I-95 83 54 65 None Calm 5 mph NW 101 - 99 6/20/2018 2:30:00 PM
US-50 at MD-2 82 66 70 None Calm 4 mph N 101 - 96 6/20/2018 2:30:00 PM
US-50 at MD-331 85 64 72 None 4 mph 6 mph S 113 - 116 6/20/2018 2:30:00 PM
US-50 at OC Drawbridge 75 83 69 None 8 mph 14 mph SE 118 - 118 6/20/2018 2:30:00 PM
US-50 at Table Rock Rd 76 86 71 None 4 mph 12 mph W 105 - 105 6/20/2018 2:30:00 PM
US-50 Kent Narrow Bridge 84 51 65 None 4 mph 9 mph W 106 - 108 6/20/2018 2:30:00 PM
WPL Pier 31 80 58 64 None Calm Calm N 105 - 105 6/20/2018 2:31:00 PM
Location Air RH Dwp Precip Type Wind Speed Wind Gust Direction Pavement Temperature Date/Time